Time;durP1;ratioP1;P1;durP2;ratioP2;P2;SDS_P1;SDS_P2;PMS_P1;PMS_P2;Temp;Humidity;BMP_temperature;BMP_pressure;BME280_temperature;BME280_humidity;BME280_pressure;Samples;Min_cycle;Max_cycle;Signal;HPM_P1;HPM_P2
2021/09/04 13:36:24;;;;;;;19.65;12.70;;;18.00;99.90;;;;;;5089032;27;20559;-68
2021/09/04 13:38:52;;;;;;;18.08;13.82;;;17.90;99.90;;;;;;5089224;28;20287;-64
2021/09/04 13:41:19;;;;;;;16.70;13.23;;;17.90;99.90;;;;;;5089232;28;20329;-66
2021/09/04 13:43:47;;;;;;;18.60;14.50;;;17.90;99.90;;;;;;5089047;28;20203;-68
2021/09/04 13:46:15;;;;;;;21.25;14.38;;;17.90;99.90;;;;;;5088884;28;20231;-67
2021/09/04 13:48:43;;;;;;;19.25;13.35;;;18.00;99.90;;;;;;5088897;28;20206;-68
2021/09/04 13:51:11;;;;;;;14.85;12.90;;;18.10;99.90;;;;;;5088625;28;20274;-68
2021/09/04 13:53:40;;;;;;;20.35;15.02;;;18.20;99.90;;;;;;5088193;28;20612;-68
2021/09/04 13:56:08;;;;;;;15.82;13.05;;;18.30;99.90;;;;;;5088851;28;20223;-67
2021/09/04 13:58:36;;;;;;;17.38;13.55;;;18.30;99.90;;;;;;5088611;28;20694;-68
2021/09/04 14:01:04;;;;;;;17.83;12.68;;;18.50;99.90;;;;;;5088585;28;20227;-67
2021/09/04 14:03:32;;;;;;;15.02;13.13;;;18.60;99.90;;;;;;5088524;28;20686;-67
2021/09/04 14:06:00;;;;;;;16.80;12.90;;;18.40;99.90;;;;;;5088689;28;20196;-66
2021/09/04 14:08:28;;;;;;;16.42;12.57;;;18.50;99.90;;;;;;5088794;28;20204;-67
2021/09/04 14:10:57;;;;;;;16.30;12.18;;;18.50;99.90;;;;;;5088375;28;20299;-71
2021/09/04 14:13:25;;;;;;;14.43;11.80;;;18.30;99.90;;;;;;5088111;28;20239;-67
2021/09/04 14:15:53;;;;;;;16.30;11.98;;;18.20;99.90;;;;;;5088246;28;20612;-69
2021/09/04 14:18:21;;;;;;;15.10;12.30;;;18.00;99.90;;;;;;5088319;28;20258;-68
2021/09/04 14:20:49;;;;;;;17.30;12.25;;;17.90;99.90;;;;;;5087970;28;20708;-68
2021/09/04 14:23:17;;;;;;;17.17;12.52;;;17.90;99.90;;;;;;5088580;28;20211;-68
2021/09/04 14:25:45;;;;;;;11.07;9.50;;;17.90;99.90;;;;;;5088389;28;20192;-68
2021/09/04 14:28:14;;;;;;;16.10;11.52;;;17.90;99.90;;;;;;5087888;28;20303;-71
2021/09/04 14:30:42;;;;;;;16.48;11.57;;;18.00;99.90;;;;;;5088567;28;20675;-69
2021/09/04 14:33:10;;;;;;;13.45;11.05;;;18.00;99.90;;;;;;5088924;28;20203;-68
2021/09/04 14:35:38;;;;;;;15.05;11.85;;;18.00;99.90;;;;;;5089431;28;20224;-69
2021/09/04 14:38:06;;;;;;;12.50;10.00;;;17.80;99.90;;;;;;5088012;28;20215;-69
2021/09/04 14:40:34;;;;;;;15.40;11.60;;;17.60;99.90;;;;;;5088264;28;20212;-69
2021/09/04 14:43:01;;;;;;;17.60;12.68;;;17.50;99.90;;;;;;5088017;28;20200;-69
2021/09/04 14:45:31;;;;;;;15.60;11.95;;;17.50;99.90;;;;;;5087148;28;20578;-69
2021/09/04 14:47:59;;;;;;;17.17;12.48;;;17.40;99.90;;;;;;5074211;28;20206;-69
2021/09/04 14:50:27;;;;;;;16.73;12.15;;;17.40;99.90;;;;;;5074080;28;20304;-69
2021/09/04 14:52:55;;;;;;;16.23;12.57;;;17.50;99.90;;;;;;5074380;28;20247;-69
2021/09/04 14:55:23;;;;;;;16.13;11.50;;;17.60;99.90;;;;;;5074177;28;20216;-69
2021/09/04 14:57:51;;;;;;;14.65;10.80;;;17.60;99.90;;;;;;5074073;28;20240;-68
2021/09/04 15:00:20;;;;;;;16.25;10.88;;;17.60;99.90;;;;;;5074248;28;20197;-68
2021/09/04 15:02:51;;;;;;;16.02;12.02;;;17.70;99.90;;;;;;5074422;28;20243;-70
2021/09/04 15:05:20;;;;;;;15.68;12.27;;;17.60;99.90;;;;;;5074296;28;20204;-69
2021/09/04 15:07:48;;;;;;;12.80;10.35;;;17.70;99.90;;;;;;5074189;28;20583;-68
2021/09/04 15:10:16;;;;;;;13.95;11.02;;;17.70;99.90;;;;;;5074037;28;20201;-68
2021/09/04 15:12:43;;;;;;;15.52;12.98;;;17.70;99.90;;;;;;5073804;28;20236;-69
2021/09/04 15:15:12;;;;;;;15.32;11.52;;;17.70;99.90;;;;;;5073622;28;20315;-68
2021/09/04 15:17:40;;;;;;;15.30;11.80;;;17.70;99.90;;;;;;5073996;28;20205;-71
2021/09/04 15:20:11;;;;;;;16.05;12.30;;;17.70;99.90;;;;;;5073715;28;20227;-69
2021/09/04 15:22:39;;;;;;;14.38;10.38;;;17.80;99.90;;;;;;5074035;28;20204;-69
2021/09/04 15:25:07;;;;;;;16.00;11.68;;;17.80;99.90;;;;;;5074067;28;20204;-68
2021/09/04 15:27:36;;;;;;;15.57;11.65;;;17.80;99.90;;;;;;5073810;28;20295;-68
2021/09/04 15:30:04;;;;;;;16.05;11.18;;;17.80;99.90;;;;;;5073383;28;20469;-69
2021/09/04 15:32:32;;;;;;;15.48;11.45;;;17.80;99.90;;;;;;5073824;28;20236;-69
2021/09/04 15:35:00;;;;;;;14.43;11.48;;;17.70;99.90;;;;;;5062832;28;20324;-68
2021/09/04 15:37:29;;;;;;;16.50;11.75;;;17.70;99.90;;;;;;5054219;28;20205;-69
2021/09/04 15:39:57;;;;;;;15.30;11.68;;;17.70;99.90;;;;;;5054068;28;20205;-70
2021/09/04 15:42:25;;;;;;;15.75;12.20;;;17.70;99.90;;;;;;5093828;28;20294;-68
2021/09/04 15:44:53;;;;;;;13.90;11.65;;;17.70;99.90;;;;;;5088738;28;20297;-69
2021/09/04 15:47:21;;;;;;;16.20;11.70;;;17.70;99.90;;;;;;5077312;28;20216;-69
2021/09/04 15:49:49;;;;;;;15.98;11.93;;;17.70;99.90;;;;;;5073515;28;20205;-68
2021/09/04 15:52:17;;;;;;;14.68;11.20;;;17.70;99.90;;;;;;5073644;28;20299;-69
2021/09/04 15:54:46;;;;;;;15.48;12.82;;;17.80;99.90;;;;;;5073827;28;20257;-69
2021/09/04 15:57:14;;;;;;;12.07;10.57;;;17.80;99.90;;;;;;5073325;28;20219;-69
2021/09/04 15:59:42;;;;;;;13.05;9.85;;;17.70;99.90;;;;;;5072263;28;20677;-68
2021/09/04 16:02:10;;;;;;;10.23;8.43;;;17.70;99.90;;;;;;5072173;28;20292;-68
2021/09/04 16:04:38;;;;;;;15.55;11.30;;;17.60;99.90;;;;;;5073409;28;20211;-67
2021/09/04 16:07:06;;;;;;;13.52;10.45;;;17.60;99.90;;;;;;5073132;28;20205;-69
2021/09/04 16:09:34;;;;;;;11.98;10.20;;;17.50;99.90;;;;;;5073348;28;20721;-69
2021/09/04 16:12:03;;;;;;;14.50;11.00;;;17.50;99.90;;;;;;5072761;28;20222;-68
2021/09/04 16:14:31;;;;;;;13.23;9.70;;;17.50;99.90;;;;;;5073261;28;20205;-69
2021/09/04 16:16:59;;;;;;;13.48;10.77;;;17.40;99.90;;;;;;5073079;28;20221;-67
2021/09/04 16:19:27;;;;;;;11.52;10.13;;;17.40;99.90;;;;;;5073041;28;20675;-69
2021/09/04 16:21:59;;;;;;;10.07;8.93;;;17.30;99.90;;;;;;5072960;28;20276;-68
2021/09/04 16:24:27;;;;;;;10.15;9.05;;;17.30;99.90;;;;;;5073075;28;20295;-69
2021/09/04 16:26:55;;;;;;;13.85;10.35;;;17.20;99.90;;;;;;5073004;28;20192;-69
2021/09/04 16:29:24;;;;;;;13.43;11.70;;;17.20;99.90;;;;;;5072972;28;20251;-69
2021/09/04 16:31:52;;;;;;;15.13;11.10;;;17.10;99.90;;;;;;5073151;28;20292;-68
2021/09/04 16:34:20;;;;;;;13.05;9.75;;;17.10;99.90;;;;;;5073006;28;20668;-68
2021/09/04 16:36:48;;;;;;;13.73;11.48;;;17.10;99.90;;;;;;5072875;28;20307;-70
2021/09/04 16:39:18;;;;;;;14.18;10.77;;;17.10;99.90;;;;;;5073057;28;20232;-70
2021/09/04 16:41:46;;;;;;;12.82;9.18;;;17.00;99.90;;;;;;5073275;28;20611;-69
2021/09/04 16:44:15;;;;;;;13.73;10.10;;;17.00;99.90;;;;;;5072475;28;20278;-68
2021/09/04 16:46:44;;;;;;;11.63;10.15;;;16.90;99.90;;;;;;5072933;28;20228;-69
2021/09/04 16:49:12;;;;;;;13.00;10.40;;;16.80;99.90;;;;;;5072704;28;20272;-69
2021/09/04 16:51:40;;;;;;;10.25;8.98;;;16.80;99.90;;;;;;5072713;28;20229;-67
2021/09/04 16:54:07;;;;;;;11.70;9.48;;;16.70;99.90;;;;;;5072410;28;20295;-67
2021/09/04 16:56:35;;;;;;;11.77;9.20;;;16.60;99.90;;;;;;5072789;28;20224;-69
2021/09/04 16:59:04;;;;;;;13.32;11.02;;;16.50;99.90;;;;;;5071976;28;20209;-68
2021/09/04 17:01:31;;;;;;;13.68;10.27;;;16.50;99.90;;;;;;5072892;28;20211;-69
2021/09/04 17:04:01;;;;;;;11.68;9.35;;;16.40;99.90;;;;;;5072767;28;20644;-68
2021/09/04 17:06:29;;;;;;;12.52;9.38;;;16.40;99.90;;;;;;5072384;28;20222;-69
2021/09/04 17:08:57;;;;;;;10.68;9.10;;;16.50;99.90;;;;;;5072262;28;20299;-68
2021/09/04 17:11:26;;;;;;;10.43;8.88;;;16.50;99.90;;;;;;5072312;28;20205;-68
2021/09/04 17:13:54;;;;;;;9.50;8.13;;;16.50;99.90;;;;;;5071803;28;20303;-69
2021/09/04 17:16:22;;;;;;;9.48;7.93;;;16.50;99.90;;;;;;5072441;28;20212;-70
2021/09/04 17:18:51;;;;;;;11.07;8.60;;;16.50;99.90;;;;;;5072347;28;20207;-68
2021/09/04 17:21:20;;;;;;;8.52;7.57;;;16.40;99.90;;;;;;5072265;28;20223;-67
2021/09/04 17:23:48;;;;;;;10.50;8.07;;;16.30;99.90;;;;;;5072516;28;20299;-68
2021/09/04 17:26:18;;;;;;;10.52;8.70;;;16.20;99.90;;;;;;5072364;28;20208;-69
2021/09/04 17:28:46;;;;;;;9.88;8.70;;;16.20;99.90;;;;;;5071799;28;20201;-70
2021/09/04 17:31:14;;;;;;;11.52;9.07;;;16.10;99.90;;;;;;5072276;28;20255;-69
2021/09/04 17:33:42;;;;;;;11.32;9.45;;;16.10;99.90;;;;;;5072156;28;20227;-69
2021/09/04 17:36:11;;;;;;;12.77;9.73;;;16.00;99.90;;;;;;5071560;28;20232;-70
2021/09/04 17:38:41;;;;;;;10.38;9.05;;;16.00;99.90;;;;;;5071826;28;20644;-69
2021/09/04 17:41:10;;;;;;;11.30;8.90;;;15.90;99.90;;;;;;5071665;28;20624;-69
2021/09/04 17:43:38;;;;;;;12.77;9.48;;;15.80;99.90;;;;;;5070986;28;20234;-70
2021/09/04 17:46:07;;;;;;;11.00;9.05;;;15.60;99.90;;;;;;5070682;28;20222;-69
2021/09/04 17:48:35;;;;;;;9.35;8.35;;;15.60;99.90;;;;;;5071281;28;20873;-69
2021/09/04 17:51:04;;;;;;;13.48;9.38;;;15.50;99.90;;;;;;5070617;28;20656;-69
2021/09/04 17:53:32;;;;;;;9.63;8.63;;;15.40;99.90;;;;;;5070668;28;20200;-69
2021/09/04 17:56:02;;;;;;;11.23;8.55;;;15.30;99.90;;;;;;5070780;28;20602;-69
2021/09/04 17:58:30;;;;;;;9.52;8.30;;;15.20;99.90;;;;;;5070126;28;20216;-70
2021/09/04 18:00:58;;;;;;;17.10;10.07;;;15.10;99.90;;;;;;5071572;28;20248;-69
2021/09/04 18:03:26;;;;;;;11.52;9.27;;;15.00;99.90;;;;;;5071584;28;20254;-69
2021/09/04 18:05:54;;;;;;;13.10;10.07;;;14.80;99.90;;;;;;5070995;28;20296;-69
2021/09/04 18:08:22;;;;;;;11.02;9.63;;;14.80;99.90;;;;;;5071444;28;20201;-70
2021/09/04 18:10:50;;;;;;;10.25;9.00;;;14.70;99.90;;;;;;5071448;28;20201;-70
2021/09/04 18:13:19;;;;;;;9.98;8.90;;;14.60;99.90;;;;;;5071008;28;20703;-68
2021/09/04 18:15:47;;;;;;;10.68;9.20;;;14.50;99.90;;;;;;5072004;28;20240;-69
2021/09/04 18:18:16;;;;;;;13.20;9.48;;;14.40;99.90;;;;;;5071435;28;20692;-71
2021/09/04 18:20:43;;;;;;;12.90;8.95;;;14.40;99.90;;;;;;5070613;28;20243;-70
2021/09/04 18:23:11;;;;;;;12.45;10.15;;;14.30;99.90;;;;;;5074580;28;20200;-68
2021/09/04 18:25:39;;;;;;;11.88;10.68;;;14.20;99.90;;;;;;5075117;28;20204;-71
2021/09/04 18:28:07;;;;;;;13.55;10.73;;;14.20;99.90;;;;;;5074649;28;20250;-70
2021/09/04 18:30:36;;;;;;;14.65;10.13;;;14.20;99.90;;;;;;5075646;28;20604;-69
2021/09/04 18:33:05;;;;;;;12.27;10.60;;;14.20;99.90;;;;;;5075468;28;20196;-70
2021/09/04 18:35:32;;;;;;;13.48;11.15;;;14.10;99.90;;;;;;5075024;28;20307;-69
2021/09/04 18:38:00;;;;;;;12.45;11.13;;;14.10;99.90;;;;;;5075417;28;20622;-69
2021/09/04 18:40:28;;;;;;;12.73;10.93;;;14.00;99.90;;;;;;5075560;28;20384;-69
2021/09/04 18:42:57;;;;;;;14.73;12.30;;;14.00;99.90;;;;;;5074671;28;20258;-70
2021/09/04 18:45:24;;;;;;;17.33;15.32;;;13.90;99.90;;;;;;5075233;28;20234;-69
2021/09/04 18:47:54;;;;;;;16.35;13.95;;;13.90;99.90;;;;;;5075161;28;20279;-70
2021/09/04 18:50:23;;;;;;;16.25;13.68;;;13.90;99.90;;;;;;5074709;28;20204;-68
2021/09/04 18:52:51;;;;;;;14.43;12.18;;;13.80;99.90;;;;;;5073781;28;20208;-69
2021/09/04 18:55:19;;;;;;;15.77;12.52;;;13.80;99.90;;;;;;5073877;28;20239;-69
2021/09/04 18:57:49;;;;;;;14.05;12.48;;;13.80;99.90;;;;;;5072444;28;20219;-69
2021/09/04 19:00:17;;;;;;;16.02;12.98;;;13.80;99.90;;;;;;5074903;28;20204;-71
2021/09/04 19:02:45;;;;;;;14.95;12.80;;;13.70;99.90;;;;;;5074899;28;20224;-69
2021/09/04 19:05:17;;;;;;;16.70;12.93;;;13.70;99.90;;;;;;5075531;28;20185;-69
2021/09/04 19:07:45;;;;;;;14.60;13.00;;;13.70;99.90;;;;;;5075884;28;20220;-70
2021/09/04 19:10:14;;;;;;;15.48;12.60;;;13.70;99.90;;;;;;5076026;28;20201;-69
2021/09/04 19:12:42;;;;;;;14.60;12.60;;;13.70;99.90;;;;;;5075155;28;20574;-69
2021/09/04 19:15:11;;;;;;;15.23;13.30;;;13.60;99.90;;;;;;5074057;28;20681;-70
2021/09/04 19:17:39;;;;;;;18.35;14.30;;;13.60;99.90;;;;;;5074591;28;20704;-69
2021/09/04 19:20:09;;;;;;;20.15;15.82;;;13.50;99.90;;;;;;5075050;28;20195;-68
2021/09/04 19:22:39;;;;;;;21.75;16.42;;;13.50;99.90;;;;;;5075212;28;20549;-70
2021/09/04 19:25:08;;;;;;;24.15;19.65;;;13.50;99.90;;;;;;5075656;28;20224;-70
2021/09/04 19:27:36;;;;;;;26.60;21.98;;;13.50;99.90;;;;;;5074461;28;20285;-69
2021/09/04 19:30:06;;;;;;;22.55;20.08;;;13.60;99.90;;;;;;5074849;28;20295;-70
2021/09/04 19:32:34;;;;;;;26.67;22.00;;;13.50;99.90;;;;;;5074757;28;20205;-69
2021/09/04 19:35:02;;;;;;;27.55;22.75;;;13.50;99.90;;;;;;5074023;28;20271;-70
2021/09/04 19:37:30;;;;;;;30.80;24.13;;;13.50;99.90;;;;;;5074400;28;20231;-69
2021/09/04 19:40:00;;;;;;;32.60;25.27;;;13.40;99.90;;;;;;5074445;28;20265;-69
2021/09/04 19:42:29;;;;;;;31.95;26.17;;;13.40;99.90;;;;;;5072291;28;20210;-70
2021/09/04 19:44:57;;;;;;;32.78;25.83;;;13.40;99.90;;;;;;5072683;28;20227;-70
2021/09/04 19:47:24;;;;;;;33.80;26.77;;;13.40;99.90;;;;;;5072762;28;20304;-69
2021/09/04 19:49:52;;;;;;;36.58;27.80;;;13.30;99.90;;;;;;5072429;28;20843;-69
2021/09/04 19:52:20;;;;;;;35.30;27.20;;;13.30;99.90;;;;;;5072734;28;20204;-70
2021/09/04 19:54:48;;;;;;;35.83;28.73;;;13.40;99.90;;;;;;5072517;28;20292;-70
2021/09/04 19:57:18;;;;;;;34.33;28.38;;;13.30;99.90;;;;;;5072743;28;20296;-70
2021/09/04 19:59:46;;;;;;;35.70;28.55;;;13.30;99.90;;;;;;5073635;28;20246;-70
2021/09/04 20:02:15;;;;;;;36.35;28.75;;;13.30;99.90;;;;;;5073993;28;20204;-68
2021/09/04 20:04:43;;;;;;;38.35;28.30;;;13.20;99.90;;;;;;5073700;28;20204;-70
2021/09/04 20:07:11;;;;;;;39.70;31.20;;;13.20;99.90;;;;;;5073914;28;20323;-69
2021/09/04 20:09:39;;;;;;;40.75;31.95;;;13.20;99.90;;;;;;5073847;28;20250;-69
2021/09/04 20:12:07;;;;;;;46.17;32.75;;;13.20;99.90;;;;;;5073265;28;20207;-70
2021/09/04 20:14:36;;;;;;;40.88;31.95;;;13.30;99.90;;;;;;5073800;28;20292;-69
2021/09/04 20:17:05;;;;;;;41.88;31.55;;;13.20;99.90;;;;;;5073409;28;20200;-71
2021/09/04 20:19:32;;;;;;;43.30;34.22;;;13.20;99.90;;;;;;5073541;28;20225;-69
2021/09/04 20:22:04;;;;;;;42.22;32.78;;;13.20;99.90;;;;;;5073449;28;20188;-70
2021/09/04 20:24:32;;;;;;;45.17;33.83;;;13.20;99.90;;;;;;5073226;28;20207;-70
2021/09/04 20:27:00;;;;;;;49.33;37.00;;;13.20;99.90;;;;;;5073195;28;20204;-70
2021/09/04 20:29:28;;;;;;;46.70;36.25;;;13.10;99.90;;;;;;5073311;28;20225;-69
2021/09/04 20:31:57;;;;;;;45.28;35.58;;;13.20;99.90;;;;;;5073314;28;20291;-70
2021/09/04 20:34:26;;;;;;;47.13;35.30;;;13.20;99.90;;;;;;5072989;28;20323;-70
2021/09/04 20:36:54;;;;;;;46.35;35.25;;;13.20;99.90;;;;;;5073177;28;20208;-68
2021/09/04 20:39:23;;;;;;;46.53;36.42;;;13.20;99.90;;;;;;5073182;28;20252;-70
2021/09/04 20:41:53;;;;;;;48.17;37.25;;;13.20;99.90;;;;;;5072953;28;20666;-69
2021/09/04 20:44:25;;;;;;;48.03;35.90;;;13.10;99.90;;;;;;5072504;28;20189;-68
2021/09/04 20:46:54;;;;;;;45.95;35.60;;;13.10;99.90;;;;;;5072799;28;20184;-68
2021/09/04 20:49:25;;;;;;;47.83;35.67;;;13.20;99.90;;;;;;5072861;28;20670;-69
2021/09/04 20:51:54;;;;;;;47.00;37.28;;;13.10;99.90;;;;;;5071210;28;20664;-68
2021/09/04 20:54:22;;;;;;;48.08;37.00;;;13.10;99.90;;;;;;5072253;28;20625;-69
2021/09/04 20:56:50;;;;;;;47.95;38.47;;;13.10;99.90;;;;;;5071432;28;20203;-70
2021/09/04 20:59:18;;;;;;;50.03;37.38;;;13.10;99.90;;;;;;5072230;28;20258;-69
2021/09/04 21:01:46;;;;;;;49.72;37.25;;;13.00;99.90;;;;;;5072518;28;20374;-70
2021/09/04 21:04:14;;;;;;;57.13;42.85;;;13.00;99.90;;;;;;5072309;28;20196;-69
2021/09/04 21:06:44;;;;;;;60.70;45.33;;;13.00;99.90;;;;;;5072280;28;20287;-69
2021/09/04 21:09:14;;;;;;;52.25;41.55;;;13.00;99.90;;;;;;5072395;28;20562;-69
2021/09/04 21:11:43;;;;;;;51.33;40.30;;;12.90;99.90;;;;;;5072871;28;20197;-69
2021/09/04 21:14:11;;;;;;;50.55;39.53;;;12.90;99.90;;;;;;5072556;28;20207;-68
2021/09/04 21:16:39;;;;;;;48.33;39.13;;;12.80;99.90;;;;;;5072822;28;20203;-69
2021/09/04 21:19:07;;;;;;;53.88;41.40;;;12.80;99.90;;;;;;5072722;28;20231;-69
2021/09/04 21:21:35;;;;;;;50.65;39.30;;;12.80;99.90;;;;;;5072480;28;20303;-69
2021/09/04 21:24:05;;;;;;;47.72;37.50;;;12.80;99.90;;;;;;5072335;28;20209;-69
2021/09/04 21:26:32;;;;;;;48.97;38.30;;;12.90;99.90;;;;;;5072007;28;20836;-69
2021/09/04 21:29:00;;;;;;;49.63;38.53;;;12.80;99.90;;;;;;5071571;28;20201;-69
2021/09/04 21:31:29;;;;;;;49.03;38.45;;;12.70;99.90;;;;;;5072303;28;20307;-70
2021/09/04 21:33:58;;;;;;;46.78;37.97;;;12.70;99.90;;;;;;5071001;28;20254;-68
2021/09/04 21:36:27;;;;;;;46.40;36.83;;;12.70;99.90;;;;;;5070779;28;20207;-68
2021/09/04 21:38:55;;;;;;;50.65;38.63;;;12.80;99.90;;;;;;5071170;28;20221;-68
2021/09/04 21:41:24;;;;;;;48.60;37.50;;;12.80;99.90;;;;;;5071286;28;20231;-71
2021/09/04 21:43:52;;;;;;;52.30;37.97;;;12.80;99.90;;;;;;5071798;28;20235;-71
2021/09/04 21:46:20;;;;;;;46.70;37.15;;;12.70;99.90;;;;;;5071847;28;20212;-70
2021/09/04 21:48:48;;;;;;;52.60;40.75;;;12.50;99.90;;;;;;5071253;28;20201;-70
2021/09/04 21:51:16;;;;;;;50.20;39.87;;;12.60;99.90;;;;;;5072220;28;20200;-70
2021/09/04 21:53:44;;;;;;;45.50;37.40;;;12.50;99.90;;;;;;5072171;28;20672;-71
2021/09/04 21:56:11;;;;;;;45.88;34.45;;;12.50;99.90;;;;;;5072614;28;20307;-70
2021/09/04 21:58:40;;;;;;;34.05;28.02;;;12.50;99.90;;;;;;5076070;28;20300;-70
2021/09/04 22:01:08;;;;;;;30.92;26.67;;;12.50;99.90;;;;;;5075880;28;20210;-70
2021/09/04 22:03:37;;;;;;;31.90;26.63;;;12.50;99.90;;;;;;5076078;28;20209;-71
2021/09/04 22:06:04;;;;;;;30.20;25.23;;;12.40;99.90;;;;;;5075842;28;20200;-70
2021/09/04 22:08:32;;;;;;;26.83;22.27;;;12.50;99.90;;;;;;5076129;28;20201;-69
2021/09/04 22:11:00;;;;;;;30.27;21.33;;;12.50;99.90;;;;;;5075879;28;20205;-71
2021/09/04 22:13:28;;;;;;;26.55;20.90;;;12.60;99.90;;;;;;5075894;28;20196;-71
2021/09/04 22:15:57;;;;;;;24.13;19.55;;;12.60;99.90;;;;;;5076012;28;20627;-70
2021/09/04 22:18:25;;;;;;;22.93;17.43;;;12.60;99.90;;;;;;5075981;28;20270;-69
2021/09/04 22:20:53;;;;;;;23.90;16.98;;;12.50;99.90;;;;;;5075575;28;20643;-70
2021/09/04 22:23:21;;;;;;;21.70;15.45;;;12.60;99.90;;;;;;5075532;28;20205;-70
2021/09/04 22:25:49;;;;;;;17.38;14.18;;;12.60;99.90;;;;;;5074942;28;20572;-70
2021/09/04 22:28:17;;;;;;;18.92;14.02;;;12.60;99.90;;;;;;5075667;28;20292;-69
2021/09/04 22:30:45;;;;;;;17.80;12.95;;;12.60;99.90;;;;;;5075302;28;20299;-63
2021/09/04 22:33:14;;;;;;;14.63;12.00;;;12.60;99.90;;;;;;5075462;28;20212;-62
2021/09/04 22:35:42;;;;;;;15.70;12.60;;;12.60;99.90;;;;;;5075333;28;20328;-63
2021/09/04 22:38:10;;;;;;;15.67;12.27;;;12.60;99.90;;;;;;5075660;28;20236;-63
2021/09/04 22:40:43;;;;;;;18.03;12.10;;;12.50;99.90;;;;;;5075040;28;20217;-62
2021/09/04 22:43:12;;;;;;;15.40;12.40;;;12.50;99.90;;;;;;5075191;28;20644;-62
2021/09/04 22:45:40;;;;;;;16.30;12.32;;;12.60;99.90;;;;;;5075520;28;20232;-63
2021/09/04 22:48:09;;;;;;;14.52;11.27;;;12.40;99.90;;;;;;5075489;28;20250;-62
2021/09/04 22:50:39;;;;;;;17.33;11.63;;;12.40;99.90;;;;;;5075340;28;20196;-62
2021/09/04 22:53:07;;;;;;;18.57;13.43;;;12.40;99.90;;;;;;5075276;28;20224;-63
2021/09/04 22:55:35;;;;;;;14.88;11.93;;;12.40;99.90;;;;;;5075094;28;20300;-62
2021/09/04 22:58:04;;;;;;;13.30;10.97;;;12.40;99.90;;;;;;5075233;28;20207;-62
2021/09/04 23:00:32;;;;;;;15.75;11.02;;;12.40;99.90;;;;;;5074792;28;20779;-62
2021/09/04 23:03:00;;;;;;;14.23;10.93;;;12.40;99.90;;;;;;5074778;28;20246;-62
2021/09/04 23:05:28;;;;;;;15.70;11.27;;;12.40;99.90;;;;;;5074692;28;20192;-63
2021/09/04 23:07:58;;;;;;;19.43;11.40;;;12.50;99.90;;;;;;5074685;28;20291;-63
2021/09/04 23:10:26;;;;;;;13.00;10.77;;;12.40;99.90;;;;;;5074911;28;20200;-62
2021/09/04 23:12:53;;;;;;;18.90;12.15;;;12.50;99.90;;;;;;5074940;28;20232;-61
2021/09/04 23:15:21;;;;;;;14.47;11.20;;;12.50;99.90;;;;;;5074925;28;20759;-62
2021/09/04 23:17:49;;;;;;;16.42;12.57;;;12.40;99.90;;;;;;5074741;28;20679;-63
2021/09/04 23:20:18;;;;;;;14.88;11.23;;;12.40;99.90;;;;;;5074431;28;20217;-63
2021/09/04 23:22:46;;;;;;;17.23;11.75;;;12.30;99.90;;;;;;5074855;28;20296;-63
2021/09/04 23:25:17;;;;;;;17.03;11.50;;;12.30;99.90;;;;;;5074569;28;20203;-62
2021/09/04 23:27:47;;;;;;;13.60;11.37;;;12.20;99.90;;;;;;5074669;28;20276;-63
2021/09/04 23:30:16;;;;;;;15.20;12.67;;;12.20;99.90;;;;;;5074781;28;20292;-62
2021/09/04 23:32:45;;;;;;;14.00;11.43;;;12.10;99.90;;;;;;5074720;28;20301;-63
2021/09/04 23:35:14;;;;;;;16.97;12.23;;;12.10;99.90;;;;;;5074278;28;20327;-63
2021/09/04 23:37:42;;;;;;;14.25;12.50;;;12.00;99.90;;;;;;5074294;28;20649;-61
2021/09/04 23:40:11;;;;;;;16.13;12.73;;;12.00;99.90;;;;;;5074204;28;20308;-62
2021/09/04 23:42:40;;;;;;;18.33;12.80;;;11.90;99.90;;;;;;5074381;28;20327;-62
2021/09/04 23:45:10;;;;;;;16.83;12.70;;;11.90;99.90;;;;;;5074614;28;20283;-62
2021/09/04 23:47:38;;;;;;;14.37;12.67;;;11.90;99.90;;;;;;5074497;28;20542;-61
2021/09/04 23:50:07;;;;;;;17.90;13.23;;;11.80;99.90;;;;;;5074187;28;20303;-62
2021/09/04 23:52:35;;;;;;;17.57;13.23;;;11.90;99.90;;;;;;5074220;28;20274;-62
2021/09/04 23:55:03;;;;;;;20.33;13.10;;;11.80;99.90;;;;;;5073988;28;20209;-63
2021/09/04 23:57:32;;;;;;;16.27;12.23;;;11.90;99.90;;;;;;5074121;28;20240;-63
